Time;durP1;ratioP1;P1;durP2;ratioP2;P2;SDS_P1;SDS_P2;PMS_P1;PMS_P2;Temp;Humidity;BMP_temperature;BMP_pressure;BME280_temperature;BME280_humidity;BME280_pressure;Samples;Min_cycle;Max_cycle;Signal;HPM_P1;HPM_P2
2023/05/23 00:02:16;;;;;;;0.80;0.80;;;;;;;12.25;100.00;96684.59;5084064;28;20132;-57
2023/05/23 00:04:43;;;;;;;0.90;0.90;;;;;;;12.14;100.00;96667.84;5084164;28;20087;-57
2023/05/23 00:07:10;;;;;;;0.90;0.90;;;;;;;12.17;100.00;96678.22;5085118;28;20052;-58
2023/05/23 00:09:36;;;;;;;1.00;1.00;;;;;;;12.28;100.00;96684.63;5085690;28;20052;-57
2023/05/23 00:12:03;;;;;;;0.90;0.90;;;;;;;11.86;100.00;96623.31;5085566;28;20159;-58
2023/05/23 00:14:32;;;;;;;0.90;0.90;;;;;;;12.32;100.00;96674.31;5083985;28;20051;-57
2023/05/23 00:17:00;;;;;;;1.00;1.00;;;;;;;12.29;100.00;96691.75;5084780;28;20060;-58
2023/05/23 00:19:27;;;;;;;0.90;0.90;;;;;;;11.89;100.00;96642.75;5084054;28;20048;-58
2023/05/23 00:21:57;;;;;;;0.90;0.90;;;;;;;12.13;100.00;96660.72;5085205;28;20149;-57
2023/05/23 00:24:24;;;;;;;0.90;0.90;;;;;;;12.16;100.00;96682.97;5084107;28;20101;-57
2023/05/23 00:26:50;;;;;;;0.90;0.90;;;;;;;11.95;100.00;96643.16;5084905;28;20052;-58
2023/05/23 00:29:18;;;;;;;0.98;0.98;;;;;;;12.19;100.00;96675.81;5085177;28;20052;-57
2023/05/23 00:31:45;;;;;;;1.00;1.00;;;;;;;12.03;100.00;96645.59;5084883;28;20052;-58
2023/05/23 00:34:13;;;;;;;0.90;0.90;;;;;;;12.11;100.00;96663.09;5083443;28;20136;-57
2023/05/23 00:36:42;;;;;;;1.00;1.00;;;;;;;12.15;100.00;96669.47;5083076;28;20135;-57
2023/05/23 00:39:17;;;;;;;0.90;0.90;;;;;;;12.09;100.00;96673.81;5084742;28;20488;-57
2023/05/23 00:41:46;;;;;;;0.93;0.93;;;;;;;11.98;100.00;96653.53;5084460;28;20048;-59
2023/05/23 00:44:15;;;;;;;0.90;0.90;;;;;;;11.99;100.00;96660.66;5083645;28;20055;-57
2023/05/23 00:46:46;;;;;;;0.90;0.90;;;;;;;11.99;100.00;96663.44;5084943;28;20056;-59
2023/05/23 00:49:13;;;;;;;0.90;0.90;;;;;;;11.79;100.00;96639.94;5084661;28;20052;-58
2023/05/23 00:51:41;;;;;;;0.90;0.90;;;;;;;12.03;100.00;96655.91;5084357;28;20622;-58
2023/05/23 00:54:08;;;;;;;0.90;0.90;;;;;;;11.79;100.00;96657.38;5084830;28;20135;-57
2023/05/23 00:56:35;;;;;;;0.80;0.80;;;;;;;11.64;100.00;96652.13;5084481;28;20063;-57
2023/05/23 00:59:02;;;;;;;0.80;0.80;;;;;;;11.52;100.00;96624.69;5084665;28;20048;-58
2023/05/23 01:01:29;;;;;;;0.90;0.90;;;;;;;11.69;100.00;96657.31;5084197;28;20612;-57
2023/05/23 01:03:57;;;;;;;0.90;0.90;;;;;;;11.57;100.00;96654.84;5062881;28;20146;-56
2023/05/23 01:06:24;;;;;;;0.90;0.90;;;;;;;11.51;100.00;96634.16;5024142;28;20049;-58
2023/05/23 01:08:51;;;;;;;0.90;0.90;;;;;;;11.57;100.00;96658.38;5024432;28;20049;-57
2023/05/23 01:11:46;;;;;;;0.90;0.90;;;;;;;11.54;100.00;96652.84;5022962;28;20048;-58
2023/05/23 01:14:20;;;;;;;0.90;0.90;;;;;;;11.47;100.00;96638.91;5022935;28;20053;-57
2023/05/23 01:17:00;;;;;;;0.80;0.80;;;;;;;11.51;100.00;96643.28;5023688;28;20528;-58
2023/05/23 01:19:47;;;;;;;0.80;0.80;;;;;;;11.53;100.00;96648.44;5024567;28;20460;-57
2023/05/23 01:22:40;;;;;;;0.85;0.85;;;;;;;11.58;100.00;96651.66;5023881;28;20096;-58
2023/05/23 01:25:42;;;;;;;0.90;0.90;;;;;;;11.64;100.00;96639.06;5039136;28;20447;-58
2023/05/23 01:28:15;;;;;;;0.88;0.88;;;;;;;10.95;100.00;96545.06;5024406;28;20049;-57
2023/05/23 01:30:44;;;;;;;0.90;0.90;;;;;;;11.66;100.00;96641.44;5039434;28;20497;-57
2023/05/23 01:33:15;;;;;;;0.90;0.90;;;;;;;11.50;100.00;96627.03;5023836;28;20054;-57
2023/05/23 01:35:42;;;;;;;0.90;0.90;;;;;;;11.51;100.00;96646.06;5023465;28;20058;-59
2023/05/23 01:38:09;;;;;;;0.90;0.90;;;;;;;11.48;100.00;96640.47;5024058;28;20081;-58
2023/05/23 01:40:37;;;;;;;0.85;0.85;;;;;;;11.62;100.00;96646.94;5023877;28;20060;-57
2023/05/23 01:43:04;;;;;;;1.00;1.00;;;;;;;11.61;100.00;96639.00;5023883;28;20050;-58
2023/05/23 01:45:31;;;;;;;0.90;0.90;;;;;;;11.30;100.00;96601.53;5024221;28;20053;-59
2023/05/23 01:47:58;;;;;;;0.90;0.90;;;;;;;11.48;100.00;96646.84;5024252;28;20164;-57
2023/05/23 01:50:25;;;;;;;0.90;0.90;;;;;;;11.56;100.00;96654.03;5023970;28;20045;-59
2023/05/23 01:52:53;;;;;;;1.00;1.00;;;;;;;11.56;100.00;96636.56;5024176;28;20504;-59
2023/05/23 01:55:23;;;;;;;0.90;0.90;;;;;;;11.67;100.00;96648.56;5027524;28;20045;-57
2023/05/23 01:57:50;;;;;;;0.90;0.90;;;;;;;11.69;100.00;96632.34;5042536;28;20566;-57
2023/05/23 02:00:17;;;;;;;0.95;0.95;;;;;;;11.58;100.00;96645.31;5028186;28;20057;-57
2023/05/23 02:02:45;;;;;;;0.90;0.90;;;;;;;11.08;100.00;96549.13;5027873;28;20088;-57
2023/05/23 02:05:11;;;;;;;0.90;0.90;;;;;;;11.30;100.00;96573.03;5028066;28;20547;-57
2023/05/23 02:07:38;;;;;;;0.90;0.90;;;;;;;11.63;100.00;96614.47;5027778;28;20049;-57
2023/05/23 02:10:07;;;;;;;0.90;0.90;;;;;;;11.69;100.00;96612.91;5026378;28;20057;-57
2023/05/23 02:12:34;;;;;;;0.90;0.90;;;;;;;11.55;100.00;96593.38;5026253;28;20487;-58
2023/05/23 02:15:01;;;;;;;0.93;0.93;;;;;;;11.91;100.00;96639.59;5027758;28;20049;-57
2023/05/23 02:17:27;;;;;;;0.88;0.88;;;;;;;11.56;100.00;96592.19;5027310;28;20546;-57
2023/05/23 02:19:55;;;;;;;1.00;1.00;;;;;;;11.50;100.00;96590.97;5027607;28;20079;-57
2023/05/23 02:22:23;;;;;;;0.90;0.90;;;;;;;11.92;100.00;96644.75;5027148;28;20084;-57
2023/05/23 02:24:51;;;;;;;0.98;0.98;;;;;;;11.90;100.00;96638.03;5027461;28;20041;-57
2023/05/23 02:27:18;;;;;;;0.90;0.90;;;;;;;11.95;100.00;96643.97;5027085;28;20052;-58
2023/05/23 02:29:44;;;;;;;0.90;0.90;;;;;;;11.89;100.00;96642.75;5027182;28;20045;-59
2023/05/23 02:32:11;;;;;;;0.90;0.90;;;;;;;11.71;100.00;96627.97;5025909;28;20104;-57
2023/05/23 02:34:39;;;;;;;0.88;0.88;;;;;;;11.81;100.00;96643.91;5042126;28;20053;-57
2023/05/23 02:37:06;;;;;;;0.80;0.80;;;;;;;11.27;100.00;96546.09;5027138;28;20088;-57
2023/05/23 02:39:35;;;;;;;0.90;0.90;;;;;;;11.82;100.00;96639.94;5027738;28;20387;-57
2023/05/23 02:42:03;;;;;;;0.93;0.93;;;;;;;11.72;100.00;96642.66;5025778;28;20769;-56
2023/05/23 02:44:30;;;;;;;0.90;0.90;;;;;;;11.62;100.00;96640.56;5025717;28;20064;-59
2023/05/23 02:46:57;;;;;;;0.90;0.90;;;;;;;11.70;100.00;96631.16;5026413;28;20516;-57
2023/05/23 02:49:24;;;;;;;0.80;0.80;;;;;;;11.77;100.00;96645.06;5025968;28;20064;-59
2023/05/23 02:51:51;;;;;;;0.85;0.85;;;;;;;11.70;100.00;96636.69;5023711;28;20096;-57
2023/05/23 02:54:17;;;;;;;0.90;0.90;;;;;;;11.69;100.00;96646.22;5025596;28;20053;-57
2023/05/23 02:56:45;;;;;;;0.80;0.80;;;;;;;11.37;100.00;96628.53;5040491;28;20054;-57
2023/05/23 02:59:12;;;;;;;0.90;0.90;;;;;;;10.95;100.00;96543.09;5025485;28;20056;-57
2023/05/23 03:01:39;;;;;;;0.90;0.90;;;;;;;11.71;100.00;96644.63;5040372;28;20599;-57
2023/05/23 03:04:06;;;;;;;0.90;0.90;;;;;;;11.31;100.00;96557.97;5026703;28;20050;-57
2023/05/23 03:06:33;;;;;;;0.90;0.90;;;;;;;11.59;100.00;96646.91;5025639;28;20472;-59
2023/05/23 03:09:00;;;;;;;0.90;0.90;;;;;;;11.75;100.00;96633.56;5026384;28;20060;-59
2023/05/23 03:11:28;;;;;;;1.00;1.00;;;;;;;11.50;100.00;96590.97;5041600;28;20571;-57
2023/05/23 03:13:55;;;;;;;0.90;0.90;;;;;;;11.93;100.00;96631.69;5026361;28;20099;-57
2023/05/23 03:16:24;;;;;;;0.90;0.90;;;;;;;11.70;100.00;96581.22;5026067;28;20154;-57
2023/05/23 03:18:51;;;;;;;0.90;0.90;;;;;;;12.06;100.00;96635.72;5041355;28;20050;-57
2023/05/23 03:21:18;;;;;;;0.90;0.90;;;;;;;12.13;100.00;96644.88;5026260;28;20126;-57
2023/05/23 03:23:45;;;;;;;0.90;0.90;;;;;;;12.26;100.00;96639.75;5041745;28;20053;-58
2023/05/23 03:26:11;;;;;;;0.90;0.90;;;;;;;12.08;100.00;96647.22;5026283;28;20220;-57
2023/05/23 03:28:38;;;;;;;0.90;0.90;;;;;;;11.77;100.00;96573.75;5025736;28;20523;-57
2023/05/23 03:31:05;;;;;;;1.00;1.00;;;;;;;12.08;100.00;96611.13;5025995;28;20045;-57
2023/05/23 03:33:31;;;;;;;0.95;0.95;;;;;;;12.34;100.00;96638.59;5041065;28;20054;-57
2023/05/23 03:35:58;;;;;;;1.00;1.00;;;;;;;12.51;100.00;96648.97;5026234;28;20061;-58
2023/05/23 03:38:26;;;;;;;0.90;0.90;;;;;;;12.54;100.00;96648.19;5041345;28;20053;-58
2023/05/23 03:40:53;;;;;;;0.82;0.82;;;;;;;12.26;100.00;96581.44;5026115;28;20053;-58
2023/05/23 03:43:19;;;;;;;1.00;1.00;;;;;;;12.79;100.00;96643.47;5025762;28;20489;-57
2023/05/23 03:45:46;;;;;;;1.05;1.05;;;;;;;12.95;100.00;96645.88;5025909;28;20053;-58
2023/05/23 03:48:13;;;;;;;0.93;0.93;;;;;;;13.10;100.00;96648.31;5025779;28;20053;-59
2023/05/23 03:50:39;;;;;;;1.10;1.10;;;;;;;12.58;100.00;96554.53;5025768;28;20065;-58
2023/05/23 03:53:06;;;;;;;1.00;1.00;;;;;;;12.97;100.00;96613.72;5025438;28;20057;-58
2023/05/23 03:55:33;;;;;;;1.08;1.08;;;;;;;12.95;100.00;96606.97;5040962;28;20128;-57
2023/05/23 03:57:59;;;;;;;1.00;1.00;;;;;;;13.49;100.00;96643.56;5022314;28;20050;-59
2023/05/23 04:00:26;;;;;;;1.00;1.00;;;;;;;13.32;100.00;96580.41;5004666;28;20050;-57
2023/05/23 04:02:53;;;;;;;1.13;1.13;;;;;;;13.35;100.00;96551.78;5006393;28;20050;-58
2023/05/23 04:05:20;;;;;;;1.10;1.10;;;;;;;13.87;100.00;96627.97;5005955;28;20053;-58
2023/05/23 04:07:49;;;;;;;1.10;1.10;;;;;;;14.14;100.00;96645.00;5004357;28;20657;-60
2023/05/23 04:10:15;;;;;;;1.27;1.27;;;;;;;14.27;100.00;96646.19;5005767;28;20057;-58
2023/05/23 04:12:42;;;;;;;1.10;1.10;;;;;;;13.96;100.00;96610.88;5005712;28;20128;-58
2023/05/23 04:15:10;;;;;;;1.30;1.30;;;;;;;14.10;100.00;96606.03;5005428;28;20169;-58
2023/05/23 04:17:37;;;;;;;1.30;1.30;;;;;;;14.48;100.00;96654.47;5002935;28;20049;-58
2023/05/23 04:20:11;;;;;;;1.20;1.20;;;;;;;14.58;97.24;96645.25;5005607;28;20045;-58
2023/05/23 04:22:38;;;;;;;1.27;1.27;;;;;;;14.76;98.57;96654.31;5004171;28;20041;-58
2023/05/23 04:25:05;;;;;;;1.10;1.10;;;;;;;14.79;98.42;96642.34;5005574;28;20049;-58
2023/05/23 04:27:33;;;;;;;1.20;1.20;;;;;;;14.99;98.63;96652.59;5005473;28;20332;-58
2023/05/23 04:30:00;;;;;;;1.30;1.30;;;;;;;15.23;95.99;96644.44;5003923;28;20149;-58
2023/05/23 04:32:27;;;;;;;1.38;1.38;;;;;;;15.36;95.62;96626.81;5004948;28;20057;-58
2023/05/23 04:34:55;;;;;;;1.40;1.40;;;;;;;15.65;95.82;96661.66;5004617;28;20058;-58
2023/05/23 04:37:24;;;;;;;1.40;1.40;;;;;;;15.79;96.47;96644.78;5004621;28;20052;-60
2023/05/23 04:39:52;;;;;;;1.42;1.42;;;;;;;15.99;96.23;96653.34;5005289;28;20050;-60
2023/05/23 04:42:23;;;;;;;1.35;1.35;;;;;;;15.71;93.93;96570.66;5004752;28;20075;-59
2023/05/23 04:44:51;;;;;;;1.50;1.50;;;;;;;16.34;93.74;96645.38;5003975;28;20050;-58
2023/05/23 04:47:18;;;;;;;1.55;1.55;;;;;;;16.60;93.07;96653.06;5004988;28;20459;-58
2023/05/23 04:49:45;;;;;;;1.60;1.60;;;;;;;16.46;92.99;96624.50;5003802;28;20138;-58
2023/05/23 04:52:12;;;;;;;1.67;1.67;;;;;;;16.35;93.93;96616.22;5020137;28;20055;-59
2023/05/23 04:54:43;;;;;;;1.67;1.67;;;;;;;16.92;92.76;96657.44;5024544;28;20080;-58
2023/05/23 04:57:11;;;;;;;1.50;1.50;;;;;;;17.16;91.40;96654.31;5024173;28;20057;-58
2023/05/23 04:59:38;;;;;;;1.60;1.60;;;;;;;16.94;89.55;96585.06;5024596;28;20049;-59
2023/05/23 05:02:05;;;;;;;1.80;1.80;;;;;;;17.33;85.52;96607.63;5024560;28;20065;-59
2023/05/23 05:04:32;;;;;;;1.95;1.95;;;;;;;17.68;82.13;96675.09;5024509;28;20417;-59
2023/05/23 05:06:58;;;;;;;1.67;1.67;;;;;;;18.00;83.08;96654.94;5024196;28;20053;-58
2023/05/23 05:09:25;;;;;;;1.77;1.77;;;;;;;18.18;83.98;96658.19;5024401;28;20135;-59
2023/05/23 05:11:52;;;;;;;1.63;1.63;;;;;;;18.39;82.84;96668.22;5022652;28;20060;-57
2023/05/23 05:14:18;;;;;;;1.55;1.55;;;;;;;18.54;83.02;96658.31;5024242;28;20046;-57
2023/05/23 05:16:46;;;;;;;1.80;1.80;;;;;;;18.37;76.90;96671.44;5023883;28;20053;-57
2023/05/23 05:19:13;;;;;;;1.98;1.98;;;;;;;18.24;80.11;96594.78;5024231;28;20500;-57
2023/05/23 05:21:40;;;;;;;2.10;2.10;;;;;;;18.88;80.13;96668.00;5038978;28;20060;-56
2023/05/23 05:24:08;;;;;;;1.80;1.80;;;;;;;18.49;78.11;96634.38;5023926;28;20136;-58
2023/05/23 05:26:35;;;;;;;1.60;1.60;;;;;;;18.85;78.38;96646.44;5024021;28;20065;-56
2023/05/23 05:29:02;;;;;;;1.70;1.70;;;;;;;18.93;75.00;96675.94;5023714;28;20049;-57
2023/05/23 05:31:29;;;;;;;1.67;1.67;;;;;;;18.83;71.89;96674.13;5024073;28;20056;-56
2023/05/23 05:33:56;;;;;;;1.90;1.90;;;;;;;18.98;71.76;96677.44;5023443;28;20089;-57
2023/05/23 05:36:23;;;;;;;1.52;1.52;;;;;;;19.28;73.16;96675.16;5023576;28;20417;-59
2023/05/23 05:38:50;;;;;;;1.70;1.70;;;;;;;19.14;72.44;96641.75;5056500;28;20411;-58
2023/05/23 05:41:16;;;;;;;2.03;2.03;;;;;;;19.18;73.32;96659.31;5103954;28;20047;-58
2023/05/23 05:43:43;;;;;;;1.90;1.90;;;;;;;19.02;70.99;96684.56;5104799;28;20412;-57
2023/05/23 05:46:10;;;;;;;1.63;1.63;;;;;;;19.06;71.55;96693.66;5103878;28;20052;-57
2023/05/23 05:48:37;;;;;;;1.88;1.88;;;;;;;19.17;71.96;96673.81;5071642;28;20041;-58
2023/05/23 05:51:04;;;;;;;1.90;1.90;;;;;;;19.58;70.42;96694.50;5063645;28;20048;-57
2023/05/23 05:53:30;;;;;;;2.10;2.10;;;;;;;19.78;71.04;96697.25;5063899;28;20059;-59
2023/05/23 05:55:57;;;;;;;1.90;1.90;;;;;;;19.58;70.38;96705.75;5063655;28;20492;-57
2023/05/23 05:58:24;;;;;;;1.80;1.80;;;;;;;19.50;68.99;96656.59;5065119;28;20534;-58
2023/05/23 06:00:52;;;;;;;1.90;1.90;;;;;;;20.10;68.66;96708.50;5104503;28;20523;-57
2023/05/23 06:03:19;;;;;;;1.95;1.95;;;;;;;20.15;67.04;96704.38;5104132;28;20063;-57
2023/05/23 06:05:45;;;;;;;1.90;1.90;;;;;;;20.08;66.99;96704.53;5104366;28;20055;-58
2023/05/23 06:08:12;;;;;;;1.80;1.80;;;;;;;20.04;66.65;96686.97;5104012;28;20054;-56
2023/05/23 06:10:39;;;;;;;1.88;1.88;;;;;;;20.56;65.80;96704.50;5104147;28;20437;-58
2023/05/23 06:13:06;;;;;;;2.00;2.00;;;;;;;20.60;65.32;96705.16;5102611;28;20052;-58
2023/05/23 06:15:32;;;;;;;2.00;2.00;;;;;;;20.60;65.39;96702.34;5083034;28;20044;-59
2023/05/23 06:17:59;;;;;;;2.10;2.10;;;;;;;19.85;64.01;96607.13;5079857;28;20341;-59
2023/05/23 06:20:26;;;;;;;2.00;2.00;;;;;;;20.47;66.06;96715.59;5063734;28;20049;-56
2023/05/23 06:22:52;;;;;;;2.05;2.05;;;;;;;20.36;65.70;96703.84;5078972;28;20040;-57
2023/05/23 06:25:19;;;;;;;2.05;2.05;;;;;;;20.56;66.15;96684.78;5081578;28;20466;-58
2023/05/23 06:27:46;;;;;;;2.08;2.08;;;;;;;20.87;64.19;96711.25;5074605;28;20060;-58
2023/05/23 06:30:13;;;;;;;1.95;1.95;;;;;;;20.59;64.47;96659.38;5061621;28;20055;-58
2023/05/23 06:32:40;;;;;;;1.90;1.90;;;;;;;20.69;61.65;96716.59;5063242;28;20144;-57
2023/05/23 06:35:07;;;;;;;2.13;2.13;;;;;;;20.69;62.74;96717.38;5062000;28;20056;-56
2023/05/23 06:37:34;;;;;;;2.03;2.03;;;;;;;20.99;61.69;96707.72;5065561;28;20051;-57
2023/05/23 06:40:00;;;;;;;2.05;2.05;;;;;;;20.75;62.85;96709.19;5063650;28;20063;-60
2023/05/23 06:42:28;;;;;;;1.95;1.95;;;;;;;21.14;63.01;96711.69;5084019;28;20044;-59
2023/05/23 06:44:55;;;;;;;2.20;2.20;;;;;;;20.92;63.93;96710.69;5066395;28;20048;-60
2023/05/23 06:47:22;;;;;;;2.00;2.00;;;;;;;21.25;64.84;96708.53;5066418;28;20565;-59
2023/05/23 06:49:48;;;;;;;2.50;2.40;;;;;;;20.75;62.72;96596.56;5065434;28;20045;-59
2023/05/23 06:52:15;;;;;;;2.15;2.15;;;;;;;21.82;62.89;96712.00;5072235;28;20060;-61
2023/05/23 06:54:42;;;;;;;2.20;2.20;;;;;;;21.77;60.64;96711.75;5086666;28;20062;-60
2023/05/23 06:57:09;;;;;;;2.17;2.17;;;;;;;20.94;61.95;96711.03;5086461;28;20082;-58
2023/05/23 06:59:35;;;;;;;2.08;2.08;;;;;;;20.84;64.14;96714.94;5078012;28;20731;-61
2023/05/23 07:02:02;;;;;;;2.13;2.13;;;;;;;20.82;64.44;96698.50;5078521;28;20059;-57
2023/05/23 07:04:29;;;;;;;2.00;2.00;;;;;;;20.75;61.97;96720.44;5064956;28;20052;-58
2023/05/23 07:06:56;;;;;;;1.90;1.90;;;;;;;20.42;64.78;96716.91;5081049;28;20068;-59
2023/05/23 07:09:22;;;;;;;1.92;1.92;;;;;;;20.38;65.34;96712.59;5081437;28;20052;-59
2023/05/23 07:11:49;;;;;;;2.03;2.03;;;;;;;20.40;62.37;96705.31;5086339;28;20048;-57
2023/05/23 07:14:15;;;;;;;1.90;1.90;;;;;;;20.23;62.27;96703.75;5086631;28;20048;-60
2023/05/23 07:16:42;;;;;;;2.10;2.10;;;;;;;20.92;60.21;96702.25;5082668;28;20071;-59
2023/05/23 07:19:09;;;;;;;1.90;1.90;;;;;;;20.98;61.00;96697.66;5086328;28;20133;-58
2023/05/23 07:21:36;;;;;;;2.20;2.20;;;;;;;21.14;59.36;96694.78;5086054;28;20059;-58
2023/05/23 07:24:02;;;;;;;2.10;2.10;;;;;;;20.78;60.25;96697.03;5083519;28;20052;-63
2023/05/23 07:26:29;;;;;;;2.05;2.05;;;;;;;20.44;58.45;96604.69;5094807;28;20044;-59
2023/05/23 07:28:57;;;;;;;2.22;2.22;;;;;;;21.06;58.92;96696.22;5077854;28;20044;-61
2023/05/23 07:31:23;;;;;;;1.92;1.92;;;;;;;21.19;58.79;96687.78;5068731;28;20044;-59
2023/05/23 07:33:50;;;;;;;2.47;2.38;;;;;;;21.74;57.50;96690.06;5065701;28;20147;-60
2023/05/23 07:36:22;;;;;;;2.25;2.25;;;;;;;22.27;57.71;96689.91;5067422;28;20051;-58
2023/05/23 07:38:49;;;;;;;2.60;2.50;;;;;;;21.62;58.21;96674.75;5084944;28;20059;-58
2023/05/23 07:41:15;;;;;;;2.30;2.30;;;;;;;21.65;60.45;96671.03;5069578;28;20071;-61
2023/05/23 07:43:42;;;;;;;2.53;2.42;;;;;;;21.11;56.54;96590.66;5073488;28;20059;-60
2023/05/23 07:46:09;;;;;;;2.30;2.30;;;;;;;22.28;58.27;96685.06;5079515;28;20064;-61
2023/05/23 07:48:35;;;;;;;2.70;2.60;;;;;;;22.31;55.86;96684.94;5064613;28;20053;-61
2023/05/23 07:51:02;;;;;;;2.38;2.28;;;;;;;21.84;56.15;96639.00;5069068;28;20079;-60
2023/05/23 07:53:29;;;;;;;2.55;2.45;;;;;;;22.48;54.86;96679.13;5064043;28;20135;-61
2023/05/23 07:55:56;;;;;;;2.53;2.42;;;;;;;22.06;55.49;96690.66;5067705;28;20056;-59
2023/05/23 07:58:22;;;;;;;2.33;2.30;;;;;;;21.70;54.69;96690.22;5075186;28;20047;-61
2023/05/23 08:00:49;;;;;;;2.50;2.40;;;;;;;21.54;55.10;96619.84;5069316;28;20044;-56
2023/05/23 08:03:18;;;;;;;2.55;2.45;;;;;;;22.02;53.29;96706.88;5062301;28;20465;-58
2023/05/23 08:05:46;;;;;;;2.35;2.30;;;;;;;21.67;53.29;96645.97;5056111;28;20060;-62
2023/05/23 08:08:12;;;;;;;2.08;2.08;;;;;;;21.97;54.04;96687.72;5086872;28;20480;-59
2023/05/23 08:10:39;;;;;;;2.63;2.53;;;;;;;21.84;55.47;96655.94;5063083;28;20086;-59
2023/05/23 08:13:08;;;;;;;2.40;2.33;;;;;;;21.23;54.29;96604.75;5078652;28;20493;-60
2023/05/23 08:15:35;;;;;;;2.30;2.30;;;;;;;22.30;53.78;96683.34;5083376;28;20060;-58
2023/05/23 08:18:03;;;;;;;2.10;2.10;;;;;;;22.24;51.93;96667.47;5076812;28;20056;-59
2023/05/23 08:20:30;;;;;;;2.30;2.30;;;;;;;20.27;51.23;96301.41;5082073;28;20051;-60
2023/05/23 08:23:01;;;;;;;2.90;2.80;;;;;;;22.97;51.41;96674.53;5070995;28;20044;-59
2023/05/23 08:25:32;;;;;;;2.60;2.50;;;;;;;22.43;50.66;96675.63;5069958;28;20050;-58
2023/05/23 08:27:59;;;;;;;2.85;2.75;;;;;;;22.56;52.16;96646.63;5070413;28;20152;-57
2023/05/23 08:30:27;;;;;;;2.40;2.35;;;;;;;22.61;51.51;96662.94;5065415;28;20044;-59
2023/05/23 08:32:55;;;;;;;2.55;2.45;;;;;;;22.70;51.23;96660.22;5078924;28;20063;-59
2023/05/23 08:35:22;;;;;;;2.50;2.40;;;;;;;22.42;51.39;96648.66;5066621;28;20060;-59
2023/05/23 08:37:49;;;;;;;2.67;2.58;;;;;;;22.71;52.06;96589.16;5064432;28;20059;-61
2023/05/23 08:40:21;;;;;;;2.88;2.78;;;;;;;23.59;49.93;96659.97;5072517;28;20040;-61
2023/05/23 08:42:49;;;;;;;2.47;2.38;;;;;;;22.89;49.48;96651.38;5065979;28;20440;-59
2023/05/23 08:45:17;;;;;;;2.67;2.58;;;;;;;22.52;50.19;96638.25;5076992;28;20044;-59
2023/05/23 08:47:45;;;;;;;2.55;2.45;;;;;;;22.21;51.25;96640.94;5053246;28;20052;-57
2023/05/23 08:50:14;;;;;;;2.85;2.75;;;;;;;22.74;50.94;96626.97;5063375;28;20086;-61
2023/05/23 08:52:56;;;;;;;2.75;2.65;;;;;;;23.79;49.68;96657.53;5062320;28;20056;-61
2023/05/23 08:55:26;;;;;;;2.55;2.45;;;;;;;23.32;49.40;96661.88;5060252;28;20186;-63
2023/05/23 08:57:53;;;;;;;3.03;2.92;;;;;;;23.55;48.91;96664.19;5061825;28;20473;-58
2023/05/23 09:00:21;;;;;;;2.83;2.72;;;;;;;22.82;49.07;96566.94;5061058;28;20057;-59
2023/05/23 09:02:48;;;;;;;2.80;2.70;;;;;;;23.58;48.01;96666.88;5059532;28;20511;-58
2023/05/23 09:05:15;;;;;;;3.00;2.90;;;;;;;23.76;47.10;96657.66;5058882;28;20041;-60
2023/05/23 09:07:46;;;;;;;2.90;2.80;;;;;;;23.38;47.22;96654.34;5061243;28;20044;-60
2023/05/23 09:10:18;;;;;;;2.90;2.80;;;;;;;23.23;48.32;96625.06;5056854;28;20808;-58
2023/05/23 09:12:46;;;;;;;2.75;2.65;;;;;;;22.95;46.95;96615.63;5062207;28;20045;-64
2023/05/23 09:15:13;;;;;;;2.65;2.55;;;;;;;23.42;48.12;96655.03;5063752;28;20064;-61
2023/05/23 09:17:40;;;;;;;2.92;2.83;;;;;;;23.63;48.39;96651.34;5059333;28;20063;-62
2023/05/23 09:20:15;;;;;;;2.53;2.42;;;;;;;23.10;46.12;96649.78;5062890;28;20056;-60
2023/05/23 09:22:47;;;;;;;2.63;2.53;;;;;;;22.97;48.07;96651.94;5061699;28;20090;-60
2023/05/23 09:25:14;;;;;;;2.40;2.35;;;;;;;22.55;48.80;96568.78;5059992;28;20080;-61
2023/05/23 09:27:41;;;;;;;2.60;2.50;;;;;;;22.86;49.63;96640.25;5061519;28;20075;-61
2023/05/23 09:30:12;;;;;;;2.80;2.70;;;;;;;22.61;47.62;96634.69;5062081;28;20424;-62
2023/05/23 09:32:40;;;;;;;2.85;2.75;;;;;;;22.87;47.45;96644.63;5062340;28;20044;-61
2023/05/23 09:35:12;;;;;;;2.70;2.60;;;;;;;23.35;47.32;96641.97;5062233;28;20063;-63
2023/05/23 09:37:45;;;;;;;2.78;2.67;;;;;;;23.28;48.09;96644.28;5062007;28;20459;-62
2023/05/23 09:40:13;;;;;;;2.63;2.53;;;;;;;23.09;48.51;96643.38;5063509;28;20056;-62
2023/05/23 09:42:42;;;;;;;2.58;2.47;;;;;;;23.16;47.17;96647.94;5063256;28;20435;-61
2023/05/23 09:45:13;;;;;;;2.70;2.60;;;;;;;23.35;47.16;96643.97;5059050;28;20056;-61
2023/05/23 09:47:50;;;;;;;2.70;2.60;;;;;;;23.42;47.75;96649.38;5063469;28;20420;-63
2023/05/23 09:50:17;;;;;;;2.70;2.60;;;;;;;23.23;47.07;96642.03;5063650;28;20059;-60
2023/05/23 09:52:43;;;;;;;2.92;2.83;;;;;;;22.73;48.36;96648.00;5063134;28;20438;-60
2023/05/23 09:55:10;;;;;;;2.50;2.40;;;;;;;22.74;49.41;96653.19;5062808;28;20044;-61
2023/05/23 09:57:41;;;;;;;2.85;2.75;;;;;;;23.02;48.16;96651.31;5063179;28;20590;-61
2023/05/23 10:00:12;;;;;;;2.90;2.80;;;;;;;23.62;47.08;96638.44;5063476;28;20048;-61
2023/05/23 10:03:13;;;;;;;3.20;3.10;;;;;;;24.29;46.41;96644.94;5063937;28;20055;-61
2023/05/23 10:05:46;;;;;;;2.85;2.75;;;;;;;24.38;46.02;96568.50;5063585;28;20135;-62
2023/05/23 10:08:26;;;;;;;3.10;3.00;;;;;;;24.48;44.79;96657.06;5063728;28;20056;-61
2023/05/23 10:10:55;;;;;;;3.08;2.97;;;;;;;24.80;45.10;96645.91;5054880;28;20545;-60
2023/05/23 10:13:26;;;;;;;3.22;3.13;;;;;;;24.03;45.40;96648.53;5047934;28;20062;-59
2023/05/23 10:16:01;;;;;;;3.17;3.08;;;;;;;23.24;47.33;96654.88;5052495;28;20049;-61
2023/05/23 10:18:33;;;;;;;2.67;2.58;;;;;;;23.32;47.91;96651.38;5046707;28;20519;-60
2023/05/23 10:21:11;;;;;;;2.78;2.67;;;;;;;23.17;48.91;96615.63;5047305;28;20053;-63
2023/05/23 10:23:38;;;;;;;2.70;2.60;;;;;;;23.50;47.02;96633.69;5045911;28;20068;-59
2023/05/23 10:26:05;;;;;;;2.90;2.80;;;;;;;23.40;45.89;96567.06;5055391;28;20052;-63
2023/05/23 10:28:32;;;;;;;2.90;2.80;;;;;;;23.21;47.10;96607.78;5066715;28;20063;-63
2023/05/23 10:30:59;;;;;;;2.95;2.85;;;;;;;23.83;47.12;96651.72;5050369;28;20072;-61
2023/05/23 10:33:35;;;;;;;3.00;2.90;;;;;;;22.24;46.35;96386.06;5050165;28;20083;-62
2023/05/23 10:36:18;;;;;;;2.90;2.80;;;;;;;23.40;46.00;96646.22;5054013;28;20063;-61
2023/05/23 10:38:50;;;;;;;3.00;2.90;;;;;;;23.71;45.81;96553.66;5052289;28;20116;-59
2023/05/23 10:41:23;;;;;;;2.50;2.40;;;;;;;23.66;47.46;96630.63;5064818;28;20048;-61
2023/05/23 10:43:56;;;;;;;2.92;2.83;;;;;;;23.06;47.19;96649.16;5046003;28;20052;-61
2023/05/23 10:46:22;;;;;;;2.90;2.80;;;;;;;23.35;46.80;96641.16;5055654;28;20049;-60
2023/05/23 10:48:56;;;;;;;2.60;2.50;;;;;;;22.26;47.32;96530.31;5038782;28;20382;-60
2023/05/23 10:51:23;;;;;;;2.83;2.72;;;;;;;23.24;47.37;96590.69;5056368;28;20076;-59
2023/05/23 10:53:53;;;;;;;3.17;3.08;;;;;;;22.88;47.77;96643.38;5065587;28;20080;-63
2023/05/23 10:56:22;;;;;;;2.55;2.45;;;;;;;23.49;45.86;96618.00;5054298;28;20044;-65
2023/05/23 10:58:53;;;;;;;2.80;2.70;;;;;;;23.37;47.51;96641.50;5059049;28;20052;-63
2023/05/23 11:01:21;;;;;;;2.90;2.80;;;;;;;23.57;46.03;96582.50;5048806;28;20044;-60
2023/05/23 11:03:50;;;;;;;2.83;2.72;;;;;;;24.38;45.35;96636.44;5054974;28;20041;-64
2023/05/23 11:06:31;;;;;;;2.97;2.88;;;;;;;24.93;44.58;96626.69;5053907;28;20041;-60
2023/05/23 11:09:08;;;;;;;3.33;3.22;;;;;;;25.35;43.17;96617.47;5056384;28;20744;-62
2023/05/23 11:12:04;;;;;;;3.33;3.22;;;;;;;23.88;44.73;96569.84;5049656;28;20060;-62
2023/05/23 11:14:32;;;;;;;3.40;3.30;;;;;;;24.85;44.54;96625.44;5051930;28;20139;-61
2023/05/23 11:17:32;;;;;;;3.33;3.22;;;;;;;24.53;44.46;96628.88;5050845;28;20144;-61
2023/05/23 11:20:04;;;;;;;3.40;3.30;;;;;;;24.40;44.76;96622.63;5052369;28;20503;-62
2023/05/23 11:22:33;;;;;;;3.37;3.27;;;;;;;23.52;45.92;96563.34;5057841;28;20052;-64
2023/05/23 11:25:05;;;;;;;3.38;3.28;;;;;;;24.21;45.39;96629.50;5059580;28;20736;-60
2023/05/23 11:27:33;;;;;;;3.63;3.53;;;;;;;24.60;44.17;96620.09;5046147;28;20519;-64
2023/05/23 11:30:15;;;;;;;3.20;3.10;;;;;;;23.81;44.54;96594.81;5051067;28;20477;-60
2023/05/23 11:32:49;;;;;;;2.80;2.70;;;;;;;23.52;44.67;96626.31;5043177;28;20080;-61
2023/05/23 11:35:16;;;;;;;2.90;2.80;;;;;;;23.77;44.98;96631.72;5051472;28;20528;-61
2023/05/23 11:37:43;;;;;;;3.00;2.90;;;;;;;24.04;44.77;96628.25;5043474;28;20052;-60